Time;durP1;ratioP1;P1;durP2;ratioP2;P2;SDS_P1;SDS_P2;PMS_P1;PMS_P2;Temp;Humidity;BMP_temperature;BMP_pressure;BME280_temperature;BME280_humidity;BME280_pressure;Samples;Min_cycle;Max_cycle;Signal;HPM_P1;HPM_P2
2024/04/10 00:00:22;;;;;;;10.87;6.20;;;12.60;99.90;;;;;;4565993;25;20127;-51
2024/04/10 00:02:23;;;;;;;10.17;6.23;;;12.60;99.90;;;;;;4568167;25;20505;-54
2024/04/10 00:04:25;;;;;;;11.77;6.10;;;12.60;99.90;;;;;;4566904;25;20413;-50
2024/04/10 00:06:27;;;;;;;12.57;6.83;;;12.50;99.90;;;;;;4565904;25;20001;-54
2024/04/10 00:08:28;;;;;;;11.90;6.10;;;12.50;99.90;;;;;;4567666;26;20084;-56
2024/04/10 00:10:29;;;;;;;10.47;6.27;;;12.50;99.90;;;;;;4566504;25;19998;-52
2024/04/10 00:12:31;;;;;;;11.40;6.57;;;12.40;99.90;;;;;;4567832;25;20091;-51
2024/04/10 00:14:37;;;;;;;11.63;7.13;;;12.40;99.90;;;;;;4566246;25;20009;-50
2024/04/10 00:16:38;;;;;;;10.83;5.97;;;12.40;99.90;;;;;;4567593;25;20009;-52
2024/04/10 00:18:39;;;;;;;9.27;5.87;;;12.30;99.90;;;;;;4566980;25;20607;-55
2024/04/10 00:20:47;;;;;;;13.33;6.40;;;12.40;99.90;;;;;;4567967;26;20036;-58
2024/04/10 00:22:48;;;;;;;12.90;6.07;;;12.40;99.90;;;;;;4567017;25;20320;-51
2024/04/10 00:24:52;;;;;;;9.50;5.97;;;12.30;99.90;;;;;;4568226;26;20418;-53
2024/04/10 00:26:53;;;;;;;12.93;6.30;;;12.30;99.90;;;;;;4566480;25;20073;-54
2024/04/10 00:28:54;;;;;;;9.30;6.10;;;12.30;99.90;;;;;;4567138;26;20013;-54
2024/04/10 00:30:56;;;;;;;13.37;6.90;;;12.30;99.90;;;;;;4566324;25;19997;-49
2024/04/10 00:32:57;;;;;;;14.63;6.67;;;12.20;99.90;;;;;;4567112;25;20106;-52
2024/04/10 00:34:59;;;;;;;12.40;6.73;;;12.20;99.90;;;;;;4565869;26;20072;-55
2024/04/10 00:37:01;;;;;;;11.97;5.83;;;12.20;99.90;;;;;;4565295;25;20473;-52
2024/04/10 00:39:02;;;;;;;14.53;6.73;;;12.20;99.90;;;;;;4567205;26;20009;-52
2024/04/10 00:41:05;;;;;;;14.23;6.20;;;12.20;99.90;;;;;;4567538;25;19997;-56
2024/04/10 00:43:12;;;;;;;13.33;6.50;;;12.20;99.90;;;;;;4566114;25;20068;-52
2024/04/10 00:45:13;;;;;;;10.53;6.30;;;12.20;99.90;;;;;;4566170;25;20065;-59
2024/04/10 00:47:15;;;;;;;13.37;7.57;;;12.10;99.90;;;;;;4567440;26;20074;-53
2024/04/10 00:49:16;;;;;;;14.57;7.57;;;12.00;99.90;;;;;;4567279;25;20072;-54
2024/04/10 00:51:19;;;;;;;12.43;7.13;;;11.90;99.90;;;;;;4569507;26;20038;-53
2024/04/10 00:53:21;;;;;;;10.07;6.40;;;11.90;99.90;;;;;;4569109;25;20005;-54
2024/04/10 00:55:24;;;;;;;11.23;6.60;;;11.90;99.90;;;;;;4570728;25;20009;-54
2024/04/10 00:57:26;;;;;;;9.30;6.37;;;11.90;99.90;;;;;;4568496;25;20089;-52
2024/04/10 00:59:27;;;;;;;10.67;6.10;;;11.80;99.90;;;;;;4543486;26;19998;-51
2024/04/10 01:01:28;;;;;;;9.70;6.30;;;11.80;99.90;;;;;;4569377;26;20069;-57
2024/04/10 01:03:34;;;;;;;14.07;6.97;;;11.80;99.90;;;;;;4571123;26;20429;-52
2024/04/10 01:05:35;;;;;;;11.77;6.20;;;11.80;99.90;;;;;;4567740;25;20064;-54
2024/04/10 01:07:37;;;;;;;10.47;6.03;;;11.70;99.90;;;;;;4569868;25;20654;-57
2024/04/10 01:09:38;;;;;;;10.33;7.10;;;11.70;99.90;;;;;;4535780;26;20179;-56
2024/04/10 01:11:39;;;;;;;15.33;6.80;;;11.70;99.90;;;;;;4557752;25;20009;-53
2024/04/10 01:13:41;;;;;;;8.67;5.93;;;11.60;99.90;;;;;;4569320;25;20068;-54
2024/04/10 01:15:42;;;;;;;11.30;5.80;;;11.60;99.90;;;;;;4569330;25;20009;-49
2024/04/10 01:17:43;;;;;;;9.83;6.70;;;11.70;99.90;;;;;;4569620;25;20042;-55
2024/04/10 01:19:45;;;;;;;11.40;6.37;;;11.60;99.90;;;;;;4569961;26;20005;-48
2024/04/10 01:21:46;;;;;;;9.10;6.17;;;11.60;99.90;;;;;;4569465;25;20077;-51
2024/04/10 01:23:47;;;;;;;10.90;5.73;;;11.60;99.90;;;;;;4568039;25;20072;-53
2024/04/10 01:25:49;;;;;;;12.13;6.13;;;11.60;99.90;;;;;;4570932;26;19997;-55
2024/04/10 01:27:50;;;;;;;11.77;5.63;;;11.60;99.90;;;;;;4568039;25;20017;-56
2024/04/10 01:29:51;;;;;;;11.67;5.97;;;11.50;99.90;;;;;;4569750;25;19998;-55
2024/04/10 01:31:52;;;;;;;12.33;6.33;;;11.50;99.90;;;;;;4568321;25;20072;-54
2024/04/10 01:33:54;;;;;;;10.93;6.97;;;11.50;99.90;;;;;;4570742;25;20073;-53
2024/04/10 01:35:55;;;;;;;12.00;6.67;;;11.40;99.90;;;;;;4568428;25;20525;-55
2024/04/10 01:37:56;;;;;;;13.83;5.87;;;11.40;99.90;;;;;;4569177;25;19997;-54
2024/04/10 01:39:58;;;;;;;15.90;7.20;;;11.40;99.90;;;;;;4569281;26;20082;-53
2024/04/10 01:41:59;;;;;;;15.40;6.93;;;11.40;99.90;;;;;;4570290;25;20069;-55
2024/04/10 01:44:00;;;;;;;10.93;7.33;;;11.40;99.90;;;;;;4568591;25;20042;-55
2024/04/10 01:46:01;;;;;;;16.87;7.70;;;11.40;99.90;;;;;;4569358;25;20009;-60
2024/04/10 01:48:03;;;;;;;11.97;8.10;;;11.40;99.90;;;;;;4570342;25;20456;-52
2024/04/10 01:50:05;;;;;;;14.33;8.77;;;11.30;99.90;;;;;;4569018;26;20001;-54
2024/04/10 01:52:06;;;;;;;13.17;8.80;;;11.20;99.90;;;;;;4568985;25;20002;-52
2024/04/10 01:54:08;;;;;;;11.37;7.57;;;11.20;99.90;;;;;;4567407;25;20442;-53
2024/04/10 01:56:10;;;;;;;13.53;8.67;;;11.10;99.90;;;;;;4569251;25;20068;-53
2024/04/10 01:58:11;;;;;;;22.50;10.60;;;11.10;99.90;;;;;;4568428;25;20005;-55
2024/04/10 02:00:18;;;;;;;21.60;12.57;;;11.10;99.90;;;;;;4569052;25;19997;-48
2024/04/10 02:02:19;;;;;;;22.77;12.13;;;11.00;99.90;;;;;;4568048;26;20068;-53
2024/04/10 02:04:21;;;;;;;19.50;12.03;;;10.90;99.90;;;;;;4569156;25;20009;-55
2024/04/10 02:06:23;;;;;;;15.90;10.00;;;10.80;99.90;;;;;;4568958;25;20068;-53
2024/04/10 02:08:25;;;;;;;17.83;10.40;;;10.60;99.90;;;;;;4569785;25;19994;-49
2024/04/10 02:10:26;;;;;;;18.93;11.20;;;10.60;99.90;;;;;;4569071;25;20505;-54
2024/04/10 02:12:27;;;;;;;22.97;12.63;;;10.50;99.90;;;;;;4569271;26;20409;-55
2024/04/10 02:14:30;;;;;;;17.60;11.23;;;10.50;99.90;;;;;;4569132;25;20060;-53
2024/04/10 02:16:32;;;;;;;17.27;10.83;;;10.50;99.90;;;;;;4568990;25;20093;-54
2024/04/10 02:18:33;;;;;;;20.20;11.73;;;10.50;99.90;;;;;;4569294;26;20495;-50
2024/04/10 02:20:34;;;;;;;17.17;11.50;;;10.60;99.90;;;;;;4568791;25;20045;-51
2024/04/10 02:22:36;;;;;;;20.93;12.90;;;10.60;99.90;;;;;;4568655;25;20064;-53
2024/04/10 02:24:37;;;;;;;17.93;10.93;;;10.60;99.90;;;;;;4568196;26;20370;-54
2024/04/10 02:26:38;;;;;;;21.90;11.57;;;10.60;99.90;;;;;;4569711;25;20063;-48
2024/04/10 02:28:40;;;;;;;21.90;12.00;;;10.60;99.90;;;;;;4568448;25;20005;-52
2024/04/10 02:30:41;;;;;;;21.23;12.90;;;10.60;99.90;;;;;;4569732;26;20021;-49
2024/04/10 02:32:46;;;;;;;19.60;12.10;;;10.60;99.90;;;;;;4568204;25;20009;-54
2024/04/10 02:34:48;;;;;;;18.37;12.53;;;10.60;99.90;;;;;;4569824;25;20069;-52
2024/04/10 02:36:49;;;;;;;20.07;11.40;;;10.50;99.90;;;;;;4568594;26;20005;-53
2024/04/10 02:38:51;;;;;;;18.37;12.40;;;10.50;99.90;;;;;;4568677;25;19997;-50
2024/04/10 02:40:52;;;;;;;22.40;11.93;;;10.50;99.90;;;;;;4568193;25;20132;-52
2024/04/10 02:43:04;;;;;;;31.47;17.07;;;10.50;99.90;;;;;;4569564;25;20014;-55
2024/04/10 02:45:05;;;;;;;19.53;11.67;;;10.40;99.90;;;;;;4567934;26;20076;-51
2024/04/10 02:47:07;;;;;;;17.90;11.43;;;10.40;99.90;;;;;;4568451;25;20132;-55
2024/04/10 02:49:08;;;;;;;21.87;11.83;;;10.40;99.90;;;;;;4568925;25;20551;-54
2024/04/10 02:51:11;;;;;;;22.87;11.67;;;10.30;99.90;;;;;;4569117;26;20132;-58
2024/04/10 02:53:13;;;;;;;22.30;11.50;;;10.30;99.90;;;;;;4568626;25;20005;-50
2024/04/10 02:55:14;;;;;;;17.57;10.80;;;10.20;99.90;;;;;;4568284;25;20054;-51
2024/04/10 02:57:15;;;;;;;25.20;11.10;;;10.20;99.90;;;;;;4568648;26;20474;-52
2024/04/10 02:59:17;;;;;;;19.70;10.50;;;10.10;99.90;;;;;;4567940;25;20005;-50
2024/04/10 03:01:18;;;;;;;20.13;9.67;;;10.20;99.90;;;;;;4568592;25;19994;-54
2024/04/10 03:03:21;;;;;;;14.17;8.67;;;10.20;99.90;;;;;;4567405;26;19998;-57
2024/04/10 03:05:22;;;;;;;21.13;9.80;;;10.20;99.90;;;;;;4568250;25;20449;-58
2024/04/10 03:07:23;;;;;;;15.40;8.83;;;10.20;99.90;;;;;;4568222;26;19993;-54
2024/04/10 03:09:26;;;;;;;17.07;9.80;;;10.10;99.90;;;;;;4569275;26;20005;-57
2024/04/10 03:11:27;;;;;;;17.90;11.03;;;10.10;99.90;;;;;;4565842;25;20009;-56
2024/04/10 03:13:32;;;;;;;19.30;10.53;;;10.10;99.90;;;;;;4569541;25;20067;-56
2024/04/10 03:15:33;;;;;;;23.30;11.30;;;10.10;99.90;;;;;;4566707;25;20072;-56
2024/04/10 03:17:35;;;;;;;23.00;11.23;;;10.10;99.90;;;;;;4568590;25;20001;-56
2024/04/10 03:19:40;;;;;;;25.47;11.77;;;10.00;99.90;;;;;;4568186;25;20390;-57
2024/04/10 03:21:41;;;;;;;23.70;12.57;;;9.90;99.90;;;;;;4567893;26;20163;-54
2024/04/10 03:23:42;;;;;;;19.23;11.63;;;9.90;99.90;;;;;;4538130;26;19998;-51
2024/04/10 03:25:44;;;;;;;20.97;11.40;;;9.80;99.90;;;;;;4566102;26;20009;-54
2024/04/10 03:27:45;;;;;;;18.60;11.03;;;9.70;99.90;;;;;;4568190;26;20001;-50
2024/04/10 03:29:46;;;;;;;21.20;10.93;;;9.60;99.90;;;;;;4567746;25;20072;-49
2024/04/10 03:31:47;;;;;;;16.70;11.70;;;9.60;99.90;;;;;;4566671;25;20005;-54
2024/04/10 03:33:49;;;;;;;17.63;10.03;;;9.60;99.90;;;;;;4565890;25;20417;-52
2024/04/10 03:35:50;;;;;;;19.83;10.23;;;9.60;99.90;;;;;;4568420;25;20009;-56
2024/04/10 03:37:51;;;;;;;20.20;10.07;;;9.60;99.90;;;;;;4567087;25;20005;-51
2024/04/10 03:39:53;;;;;;;13.80;9.07;;;9.60;99.90;;;;;;4568286;25;20002;-53
2024/04/10 03:41:54;;;;;;;17.33;10.07;;;9.70;99.90;;;;;;4566553;25;20001;-54
2024/04/10 03:43:55;;;;;;;20.93;10.67;;;9.70;99.90;;;;;;4568294;25;20072;-53
2024/04/10 03:45:56;;;;;;;20.90;10.67;;;9.80;99.90;;;;;;4566912;25;20045;-49
2024/04/10 03:47:59;;;;;;;19.83;10.27;;;9.80;99.90;;;;;;4568653;25;20073;-56
2024/04/10 03:50:00;;;;;;;20.97;9.97;;;9.70;99.90;;;;;;4567744;25;20009;-49
2024/04/10 03:52:01;;;;;;;15.83;8.60;;;9.80;99.90;;;;;;4568076;25;20406;-51
2024/04/10 03:54:02;;;;;;;24.63;8.27;;;9.80;99.90;;;;;;4566617;25;20064;-56
2024/04/10 03:56:04;;;;;;;17.83;9.03;;;9.90;99.90;;;;;;4567870;25;19993;-52
2024/04/10 03:58:05;;;;;;;15.57;8.00;;;9.90;99.90;;;;;;4565846;26;20117;-59
2024/04/10 04:00:07;;;;;;;17.37;8.37;;;9.90;99.90;;;;;;4567077;26;20072;-59
2024/04/10 04:02:09;;;;;;;19.63;9.07;;;9.90;99.90;;;;;;4567461;25;20437;-51
2024/04/10 04:04:10;;;;;;;28.50;9.40;;;9.90;99.90;;;;;;4566451;25;20005;-49
2024/04/10 04:06:11;;;;;;;30.27;11.80;;;10.00;99.90;;;;;;4567439;26;20528;-53
2024/04/10 04:08:12;;;;;;;15.50;8.60;;;10.20;99.90;;;;;;4566482;25;20080;-55
2024/04/10 04:10:14;;;;;;;19.87;9.10;;;10.40;99.90;;;;;;4567699;25;20005;-53
2024/04/10 04:12:15;;;;;;;19.90;9.53;;;10.50;99.90;;;;;;4566319;25;20069;-52
2024/04/10 04:14:17;;;;;;;14.77;9.50;;;10.80;99.90;;;;;;4567525;25;20401;-57
2024/04/10 04:16:18;;;;;;;22.00;9.93;;;10.90;99.90;;;;;;4565886;25;20009;-53
2024/04/10 04:18:19;;;;;;;18.53;9.50;;;11.00;99.90;;;;;;4566485;25;20032;-55
2024/04/10 04:20:20;;;;;;;19.00;9.40;;;11.10;99.90;;;;;;4563349;25;20009;-53
2024/04/10 04:22:22;;;;;;;19.70;10.80;;;11.40;99.90;;;;;;4566211;25;20373;-51
2024/04/10 04:24:24;;;;;;;21.33;10.47;;;11.70;99.90;;;;;;4565083;25;20006;-57
2024/04/10 04:26:26;;;;;;;20.93;11.13;;;11.90;99.90;;;;;;4567339;26;20426;-54
2024/04/10 04:28:27;;;;;;;20.63;10.60;;;12.20;99.90;;;;;;4567099;25;20005;-57
2024/04/10 04:30:28;;;;;;;19.13;10.03;;;12.60;99.90;;;;;;4560508;26;20078;-53
2024/04/10 04:32:31;;;;;;;20.40;9.80;;;13.10;99.90;;;;;;4537256;26;20010;-54
2024/04/10 04:34:33;;;;;;;20.53;8.47;;;13.60;99.90;;;;;;4550043;26;20076;-56
2024/04/10 04:36:35;;;;;;;24.10;8.63;;;14.10;99.90;;;;;;4567363;26;20398;-53
2024/04/10 04:38:39;;;;;;;20.13;8.63;;;14.50;99.90;;;;;;4565264;25;20009;-55
2024/04/10 04:40:40;;;;;;;26.20;8.50;;;15.00;99.90;;;;;;4567651;25;20141;-54
2024/04/10 04:42:42;;;;;;;17.53;8.10;;;15.50;99.90;;;;;;4564599;25;19997;-54
2024/04/10 04:44:43;;;;;;;22.43;7.67;;;16.00;99.90;;;;;;4566891;25;20009;-50
2024/04/10 04:46:44;;;;;;;21.42;8.52;;;16.20;99.90;;;;;;4566025;25;20013;-56
2024/04/10 04:48:45;;;;;;;16.58;7.10;;;16.50;99.90;;;;;;4566289;25;20096;-52
2024/04/10 04:50:48;;;;;;;14.75;6.88;;;16.90;99.90;;;;;;4566111;26;20068;-54
2024/04/10 04:52:50;;;;;;;12.57;6.50;;;17.40;99.90;;;;;;4567142;25;20065;-53
2024/04/10 04:54:51;;;;;;;12.90;7.28;;;17.70;99.90;;;;;;4566265;26;20096;-55
2024/04/10 04:56:52;;;;;;;16.05;6.63;;;18.10;99.90;;;;;;4567680;25;20977;-52
2024/04/10 04:58:53;;;;;;;10.70;6.07;;;18.30;99.90;;;;;;4565505;25;20001;-46
2024/04/10 05:00:56;;;;;;;15.80;5.60;;;18.40;99.90;;;;;;4565413;25;20005;-59
2024/04/10 05:02:57;;;;;;;11.75;5.78;;;18.60;99.90;;;;;;4564521;25;20005;-53
2024/04/10 05:05:00;;;;;;;9.13;5.20;;;18.80;99.90;;;;;;4552473;25;20082;-54
2024/04/10 05:07:01;;;;;;;15.25;7.10;;;19.10;99.90;;;;;;4535984;26;20008;-53
2024/04/10 05:09:09;;;;;;;12.48;6.28;;;19.60;99.90;;;;;;4535792;26;20390;-50
2024/04/10 05:11:10;;;;;;;15.98;7.00;;;19.60;99.30;;;;;;4534886;26;20010;-51
2024/04/10 05:13:11;;;;;;;12.55;6.85;;;20.00;98.80;;;;;;4536015;26;20065;-53
2024/04/10 05:15:15;;;;;;;17.27;7.40;;;20.20;98.00;;;;;;4536334;26;19998;-55
2024/04/10 05:17:17;;;;;;;11.23;6.72;;;20.60;97.40;;;;;;4535573;26;20043;-51
2024/04/10 05:19:18;;;;;;;12.82;7.10;;;20.90;97.00;;;;;;4536884;26;20434;-54
2024/04/10 05:21:19;;;;;;;8.07;5.80;;;21.20;96.40;;;;;;4534411;26;20430;-55
2024/04/10 05:23:21;;;;;;;9.52;5.57;;;21.60;95.60;;;;;;4550523;25;20002;-56
2024/04/10 05:25:22;;;;;;;9.85;5.82;;;21.50;95.10;;;;;;4535102;26;20367;-53
2024/04/10 05:27:28;;;;;;;8.73;5.38;;;21.30;95.00;;;;;;4569444;25;20404;-56
2024/04/10 05:29:30;;;;;;;10.48;5.78;;;21.40;94.40;;;;;;4593463;25;20009;-59
2024/04/10 05:31:31;;;;;;;12.23;6.07;;;21.70;94.30;;;;;;4598087;25;19996;-54
2024/04/10 05:33:32;;;;;;;11.25;5.38;;;22.30;93.70;;;;;;4596881;25;19989;-55
2024/04/10 05:35:34;;;;;;;10.43;4.60;;;22.60;93.10;;;;;;4599075;25;20004;-55
2024/04/10 05:37:36;;;;;;;10.68;5.75;;;22.90;92.30;;;;;;4600462;25;19993;-58
2024/04/10 05:39:37;;;;;;;11.50;5.88;;;23.30;91.60;;;;;;4600437;25;20005;-54
2024/04/10 05:41:38;;;;;;;9.18;5.07;;;23.70;91.00;;;;;;4600303;25;20551;-53
2024/04/10 05:43:39;;;;;;;8.77;4.57;;;24.00;90.20;;;;;;4599089;25;20059;-55
2024/04/10 05:45:42;;;;;;;10.00;4.47;;;24.30;89.30;;;;;;4600913;25;20008;-55
2024/04/10 05:47:49;;;;;;;10.40;4.32;;;24.50;88.10;;;;;;4599270;25;20005;-58
2024/04/10 05:49:50;;;;;;;8.20;4.97;;;24.70;86.20;;;;;;4601447;25;20004;-54
2024/04/10 05:51:51;;;;;;;6.93;4.47;;;24.90;85.80;;;;;;4599843;25;20004;-56
2024/04/10 05:53:52;;;;;;;15.60;4.57;;;24.80;85.20;;;;;;4600794;25;20004;-52
2024/04/10 05:55:54;;;;;;;11.38;3.97;;;24.40;84.60;;;;;;4599952;25;20578;-52
2024/04/10 05:57:55;;;;;;;8.68;4.15;;;24.20;84.70;;;;;;4600666;25;20064;-57
2024/04/10 05:59:57;;;;;;;12.93;6.38;;;24.30;84.30;;;;;;4597289;25;20005;-55
2024/04/10 06:01:58;;;;;;;12.57;4.72;;;24.70;83.70;;;;;;4601122;25;20606;-53
2024/04/10 06:03:59;;;;;;;9.48;4.10;;;24.80;82.80;;;;;;4599941;25;20064;-56
2024/04/10 06:06:15;;;;;;;9.48;4.80;;;24.90;82.30;;;;;;4600938;25;19993;-53
2024/04/10 06:08:17;;;;;;;7.68;4.75;;;25.40;80.10;;;;;;4597839;25;20012;-52
2024/04/10 06:10:21;;;;;;;7.60;4.03;;;25.60;80.60;;;;;;4600169;25;20476;-54
2024/04/10 06:12:23;;;;;;;10.00;4.65;;;25.80;79.70;;;;;;4599305;25;20037;-52
2024/04/10 06:14:25;;;;;;;7.70;4.55;;;25.90;79.00;;;;;;4600362;25;20392;-59
2024/04/10 06:16:26;;;;;;;11.10;4.70;;;25.90;78.50;;;;;;4599296;25;20087;-60
2024/04/10 06:18:28;;;;;;;14.05;4.47;;;26.10;78.30;;;;;;4599867;25;20004;-56
2024/04/10 06:20:29;;;;;;;8.80;4.40;;;26.50;78.00;;;;;;4600134;25;20488;-55
2024/04/10 06:22:30;;;;;;;12.18;5.93;;;26.80;77.20;;;;;;4599320;25;20008;-56
2024/04/10 06:24:32;;;;;;;10.25;5.47;;;26.70;76.60;;;;;;4600493;25;20004;-52
2024/04/10 06:26:33;;;;;;;10.00;5.25;;;26.00;77.10;;;;;;4598979;25;20138;-55
2024/04/10 06:28:35;;;;;;;11.52;5.28;;;25.70;77.50;;;;;;4600661;25;20008;-56
2024/04/10 06:30:37;;;;;;;11.80;5.53;;;26.00;77.10;;;;;;4598851;25;20493;-56
2024/04/10 06:32:39;;;;;;;9.55;4.85;;;26.20;76.60;;;;;;4599620;25;20005;-51
2024/04/10 06:34:41;;;;;;;12.85;5.63;;;25.70;76.60;;;;;;4599053;25;20521;-59
2024/04/10 06:36:42;;;;;;;14.27;5.85;;;25.00;77.00;;;;;;4600109;25;20067;-56
2024/04/10 06:38:43;;;;;;;10.55;5.43;;;24.40;78.10;;;;;;4598910;25;20004;-56
2024/04/10 06:40:58;;;;;;;14.63;6.40;;;23.60;79.10;;;;;;4600240;25;20064;-55
2024/04/10 06:43:00;;;;;;;8.95;4.20;;;22.80;80.10;;;;;;4598948;25;20515;-55
2024/04/10 06:45:01;;;;;;;8.02;4.50;;;22.40;81.20;;;;;;4600316;25;20064;-58
2024/04/10 06:47:02;;;;;;;10.15;4.35;;;22.50;81.40;;;;;;4598259;25;20406;-55
2024/04/10 06:49:04;;;;;;;10.98;4.72;;;23.10;80.90;;;;;;4599750;25;20099;-54
2024/04/10 06:51:06;;;;;;;13.52;5.05;;;23.50;80.10;;;;;;4599981;25;20350;-52
2024/04/10 06:53:09;;;;;;;15.23;5.45;;;23.50;80.40;;;;;;4599088;25;20004;-54
2024/04/10 06:55:10;;;;;;;23.67;8.68;;;23.00;80.10;;;;;;4600096;25;20068;-49
2024/04/10 06:57:11;;;;;;;20.20;7.32;;;22.90;81.00;;;;;;4598612;25;20400;-57
2024/04/10 06:59:13;;;;;;;20.27;9.63;;;22.50;81.80;;;;;;4599979;25;20004;-54
2024/04/10 07:01:14;;;;;;;19.40;7.85;;;22.30;82.90;;;;;;4598598;25;20064;-54
2024/04/10 07:03:16;;;;;;;20.30;7.85;;;21.80;83.50;;;;;;4600017;25;20436;-55
2024/04/10 07:05:20;;;;;;;21.02;8.25;;;21.40;84.60;;;;;;4599232;25;20537;-54
2024/04/10 07:07:21;;;;;;;17.63;8.57;;;21.20;85.50;;;;;;4600270;25;20037;-55
2024/04/10 07:09:23;;;;;;;20.92;7.70;;;21.00;86.00;;;;;;4598848;25;20067;-55
2024/04/10 07:11:25;;;;;;;22.15;7.65;;;20.50;86.80;;;;;;4600233;25;20034;-55
2024/04/10 07:13:26;;;;;;;19.27;6.47;;;20.20;87.80;;;;;;4598680;25;20392;-57
2024/04/10 07:15:28;;;;;;;19.58;7.53;;;19.80;88.90;;;;;;4599097;25;20449;-56
2024/04/10 07:17:29;;;;;;;14.63;6.32;;;19.60;89.40;;;;;;4598908;25;20004;-56
2024/04/10 07:19:36;;;;;;;16.92;6.00;;;19.70;89.70;;;;;;4599811;25;20008;-58
2024/04/10 07:21:37;;;;;;;15.85;6.60;;;19.90;89.60;;;;;;4599139;25;20060;-57
2024/04/10 07:23:41;;;;;;;16.85;7.00;;;20.00;89.30;;;;;;4599162;25;20448;-56
2024/04/10 07:25:42;;;;;;;20.27;7.85;;;20.10;89.50;;;;;;4599372;25;20443;-56
2024/04/10 07:27:44;;;;;;;15.07;6.40;;;20.00;89.30;;;;;;4599078;25;20126;-57
2024/04/10 07:29:46;;;;;;;16.42;6.90;;;20.10;89.50;;;;;;4599650;25;19997;-58
2024/04/10 07:31:47;;;;;;;14.00;7.30;;;20.10;89.90;;;;;;4598312;25;20035;-55
2024/04/10 07:33:50;;;;;;;13.60;6.03;;;20.10;90.10;;;;;;4599543;25;20001;-57
2024/04/10 07:35:51;;;;;;;14.85;7.28;;;20.50;89.90;;;;;;4598239;25;20063;-56
2024/04/10 07:37:52;;;;;;;13.30;6.25;;;20.80;88.90;;;;;;4599395;25;20063;-58
2024/04/10 07:39:53;;;;;;;14.27;5.68;;;20.80;88.90;;;;;;4598204;25;19989;-52
2024/04/10 07:41:55;;;;;;;11.88;6.03;;;20.70;89.30;;;;;;4599298;25;20416;-54
2024/04/10 07:43:56;;;;;;;14.30;5.60;;;20.80;89.00;;;;;;4597958;25;20063;-54
2024/04/10 07:46:05;;;;;;;11.95;5.28;;;21.10;89.30;;;;;;4600063;25;19989;-56
2024/04/10 07:48:06;;;;;;;11.07;5.88;;;21.30;88.20;;;;;;4598597;25;20005;-56
2024/04/10 07:50:08;;;;;;;10.63;5.70;;;21.50;87.50;;;;;;4600025;25;19997;-56
2024/04/10 07:52:10;;;;;;;11.23;5.28;;;21.70;86.90;;;;;;4598729;25;20119;-56
2024/04/10 07:54:11;;;;;;;14.32;5.22;;;21.90;86.50;;;;;;4598587;25;20071;-53
2024/04/10 07:56:12;;;;;;;10.27;4.80;;;21.70;86.30;;;;;;4598289;25;20004;-55
2024/04/10 07:58:14;;;;;;;14.38;4.93;;;21.90;86.20;;;;;;4598912;25;20005;-58
2024/04/10 08:00:15;;;;;;;11.35;4.53;;;22.10;85.80;;;;;;4598891;25;20429;-54
2024/04/10 08:02:18;;;;;;;10.80;5.18;;;22.20;85.70;;;;;;4598637;25;20384;-58
2024/04/10 08:04:19;;;;;;;8.30;4.45;;;22.30;85.70;;;;;;4599099;25;20376;-58
2024/04/10 08:06:20;;;;;;;9.95;4.68;;;22.00;86.20;;;;;;4597836;25;20063;-56
2024/04/10 08:08:22;;;;;;;6.78;3.85;;;22.10;86.40;;;;;;4598896;25;20004;-59
2024/04/10 08:10:23;;;;;;;10.05;4.00;;;22.30;86.40;;;;;;4598015;25;20009;-56
2024/04/10 08:12:26;;;;;;;7.07;3.80;;;22.50;86.00;;;;;;4598508;25;20008;-57
2024/04/10 08:14:27;;;;;;;7.68;3.67;;;22.60;85.70;;;;;;4597529;25;20076;-57
2024/04/10 08:16:29;;;;;;;6.70;4.13;;;22.50;85.50;;;;;;4599453;25;19992;-57
2024/04/10 08:18:37;;;;;;;7.43;4.60;;;22.50;85.60;;;;;;4597931;25;20429;-54
2024/04/10 08:20:38;;;;;;;6.03;4.30;;;22.40;86.00;;;;;;4599853;25;20396;-55
2024/04/10 08:22:42;;;;;;;8.68;4.50;;;22.40;86.20;;;;;;4597290;25;20060;-56
2024/04/10 08:24:43;;;;;;;12.90;4.82;;;22.30;87.00;;;;;;4598377;25;20221;-59
2024/04/10 08:26:44;;;;;;;9.65;4.95;;;22.70;87.10;;;;;;4597812;25;20083;-57
2024/04/10 08:28:50;;;;;;;10.27;4.90;;;23.10;86.20;;;;;;4597767;25;19997;-58
2024/04/10 08:30:54;;;;;;;6.28;4.43;;;23.30;85.50;;;;;;4598000;25;20507;-57
2024/04/10 08:32:56;;;;;;;7.00;4.82;;;23.70;85.10;;;;;;4598410;25;20041;-56
2024/04/10 08:34:57;;;;;;;7.07;4.80;;;23.40;85.00;;;;;;4598255;25;20063;-56
2024/04/10 08:36:58;;;;;;;9.18;5.28;;;23.10;85.70;;;;;;4597731;25;20009;-58
2024/04/10 08:38:59;;;;;;;10.13;4.82;;;22.90;86.30;;;;;;4598717;25;20056;-56
2024/04/10 08:41:01;;;;;;;12.15;4.45;;;22.90;86.50;;;;;;4596832;25;20096;-58
2024/04/10 08:43:04;;;;;;;7.40;4.32;;;23.20;86.30;;;;;;4598605;25;20004;-55
2024/04/10 08:45:06;;;;;;;10.80;5.65;;;23.30;86.00;;;;;;4597029;25;20008;-57
2024/04/10 08:47:08;;;;;;;6.00;5.05;;;23.20;85.60;;;;;;4598857;25;20063;-56
2024/04/10 08:49:10;;;;;;;4.88;3.80;;;23.10;86.00;;;;;;4597068;25;20009;-55
2024/04/10 08:51:18;;;;;;;6.05;3.92;;;23.30;86.00;;;;;;4599197;25;20066;-57
2024/04/10 08:53:20;;;;;;;5.28;3.40;;;23.30;85.80;;;;;;4597181;25;20454;-56
2024/04/10 08:55:21;;;;;;;11.15;4.18;;;23.50;85.50;;;;;;4598717;25;20045;-56
2024/04/10 08:57:23;;;;;;;17.55;3.90;;;23.70;85.20;;;;;;4597427;25;20380;-56
2024/04/10 08:59:27;;;;;;;5.95;3.40;;;23.90;84.50;;;;;;4598421;25;19993;-55
2024/04/10 09:01:36;;;;;;;6.55;3.38;;;23.80;84.30;;;;;;4597905;25;20000;-53
2024/04/10 09:03:37;;;;;;;4.80;3.38;;;23.90;84.10;;;;;;4598605;25;20071;-56
2024/04/10 09:05:39;;;;;;;7.68;3.55;;;24.00;84.00;;;;;;4598013;25;20060;-56
2024/04/10 09:07:40;;;;;;;7.22;3.85;;;23.90;83.70;;;;;;4597826;25;20075;-53
2024/04/10 09:09:42;;;;;;;6.97;3.05;;;23.70;83.60;;;;;;4597945;25;20059;-51
2024/04/10 09:11:50;;;;;;;4.95;3.05;;;23.70;83.90;;;;;;4600322;25;19992;-54
2024/04/10 09:14:07;;;;;;;5.95;3.42;;;23.70;83.80;;;;;;4541928;25;20050;-52
2024/04/10 09:16:08;;;;;;;6.07;3.25;;;23.70;83.60;;;;;;4538873;26;20006;-54
2024/04/10 09:18:09;;;;;;;7.93;3.70;;;23.70;84.10;;;;;;4538683;26;20069;-55
2024/04/10 09:20:16;;;;;;;9.43;3.78;;;23.60;84.40;;;;;;4537683;26;19994;-57
2024/04/10 09:22:18;;;;;;;8.02;4.07;;;23.60;84.90;;;;;;4538435;26;20073;-58
2024/04/10 09:24:27;;;;;;;5.10;3.58;;;23.40;84.80;;;;;;4538071;26;20039;-56
2024/04/10 09:26:28;;;;;;;9.50;3.22;;;23.40;85.10;;;;;;4539175;26;20006;-55
2024/04/10 09:28:30;;;;;;;5.25;3.25;;;23.60;84.90;;;;;;4538229;26;20066;-55
2024/04/10 09:30:35;;;;;;;7.07;4.03;;;23.70;84.60;;;;;;4539504;26;20042;-56
2024/04/10 09:32:36;;;;;;;6.78;2.75;;;23.60;84.60;;;;;;4538474;26;20099;-56
2024/04/10 09:34:39;;;;;;;10.15;3.65;;;23.60;84.90;;;;;;4538987;26;20062;-55
2024/04/10 09:36:41;;;;;;;6.88;3.30;;;23.70;85.00;;;;;;4537778;26;20568;-54
2024/04/10 09:38:43;;;;;;;7.15;3.45;;;23.70;84.90;;;;;;4538909;26;20069;-53
2024/04/10 09:40:54;;;;;;;7.13;3.85;;;23.70;84.80;;;;;;4562187;25;20080;-57
2024/04/10 09:43:03;;;;;;;5.18;3.08;;;23.70;84.70;;;;;;4586422;25;20455;-56
2024/04/10 09:45:15;;;;;;;6.43;3.30;;;23.90;84.60;;;;;;4599644;25;20068;-56
2024/04/10 09:47:18;;;;;;;12.50;3.42;;;24.00;84.40;;;;;;4601262;25;20012;-55
2024/04/10 09:49:25;;;;;;;9.02;3.38;;;24.10;84.20;;;;;;4599087;25;20008;-52
2024/04/10 09:51:26;;;;;;;7.45;3.20;;;24.10;84.20;;;;;;4600937;25;20071;-56
2024/04/10 09:53:29;;;;;;;5.32;2.85;;;24.20;84.00;;;;;;4599307;25;20064;-56
2024/04/10 09:55:33;;;;;;;6.82;3.20;;;24.30;83.70;;;;;;4600378;25;20397;-53
2024/04/10 09:57:35;;;;;;;5.13;2.88;;;24.20;83.70;;;;;;4598582;25;20004;-58
2024/04/10 09:59:37;;;;;;;8.00;2.80;;;24.20;83.60;;;;;;4600767;25;20020;-55
2024/04/10 10:01:38;;;;;;;4.68;2.47;;;24.30;83.50;;;;;;4600000;25;20004;-50
2024/04/10 10:03:41;;;;;;;11.25;3.15;;;24.30;83.10;;;;;;4599432;25;20530;-50
2024/04/10 10:05:42;;;;;;;6.25;2.80;;;24.50;82.80;;;;;;4599214;25;20005;-55
2024/04/10 10:07:43;;;;;;;4.88;2.67;;;24.80;82.30;;;;;;4598695;25;20139;-49
2024/04/10 10:09:45;;;;;;;3.80;2.33;;;25.00;81.70;;;;;;4600053;25;20060;-55
2024/04/10 10:11:58;;;;;;;3.85;2.55;;;25.10;81.00;;;;;;4598804;25;19992;-56
2024/04/10 10:14:05;;;;;;;4.47;2.08;;;25.20;80.20;;;;;;4600010;25;20404;-58
2024/04/10 10:16:07;;;;;;;3.65;1.90;;;25.10;79.80;;;;;;4598894;25;20005;-54
2024/04/10 10:18:08;;;;;;;7.03;2.00;;;25.10;79.40;;;;;;4600387;25;20059;-57
2024/04/10 10:20:22;;;;;;;2.97;1.77;;;25.10;78.90;;;;;;4597899;25;20004;-57
2024/04/10 10:22:23;;;;;;;8.05;2.28;;;25.20;77.50;;;;;;4598764;25;20072;-57
2024/04/10 10:24:24;;;;;;;3.78;1.55;;;25.40;77.40;;;;;;4599411;25;19992;-54
2024/04/10 10:26:27;;;;;;;5.03;1.35;;;25.40;76.30;;;;;;4600550;25;19993;-57
2024/04/10 10:28:31;;;;;;;3.67;1.70;;;25.30;75.50;;;;;;4598618;25;20068;-53